Weather History for Fort Morgan, CO

Change the Weather History Date:

Saturday, March 9, 2013

  Actual Average (KAKO) Record (KAKO)
Temperature  
Mean Temperature 28 °F 38 °F  
Max Temperature 35 °F 51 °F 77 °F (1989)
Min Temperature 18 °F 25 °F -2 °F (1969)
Degree Days  
Heating Degree Days 38    
Month to date heating degree days  
Cooling Degree Days 0    
Month to date cooling degree days  
Moisture  
Dew Point 27 °F    
Average Humidity 84    
Maximum Humidity 99    
Minimum Humidity 71    
Precipitation  
Precipitation 0.00 in 0.03 in 0.41 in (1992)
Month to date precipitation 0.20  
Year to date precipitation 0.94  
Sea Level Pressure  
Sea Level Pressure 29.78 in    
Wind  
Wind Speed 15 mph (NNW)    
Max Wind Speed 30 mph    
Max Gust Speed 37 mph    
Visibility 6 miles    
Events Thunderstorm    
T = Trace of Precipitation, MM = Missing Value Source: NWS Daily Summary

Daily Weather History Graph

Daily Weather History Graph

Search for Another Location

Airport:

Trip Planner

Search our weather history database for the weather conditions in past years. The results will help you decide how hot, cold, wet, or windy it might be!

Date:

Astronomy

Mar. 09, 2013 Rise Set
Actual Time 6:15 AM MST 5:55 PM MST
Civil Twilight 5:48 AM MST 6:23 PM MST
Nautical Twilight 5:17 AM MST 6:54 PM MST
Astronomical Twilight 4:45 AM MST 7:26 PM MST
Moon 4:41 AM MST (3/9) 4:00 PM MST (3/9)
Length of Visible Light 12h 34m
Length of Day
11h 40m
Waning Crescent, 5% of the Moon is Illuminated
Mar 9
Waning Crescent
Mar 11
New
Mar 19
First Quarter
Mar 27
Full
Apr 2
Last Quarter

Hourly Weather History & Observations

Time (MST) Temp. Windchill Dew Point Humidity Pressure Visibility Wind Dir Wind Speed Gust Speed Precip Events Conditions
12:15 AM 35.6 °F 29.2 °F 31.3 °F 84% 29.66 in 10.0 mi North 8.1 mph - N/A   Overcast
12:35 AM 34.9 °F 28.3 °F 30.9 °F 85% 29.66 in 10.0 mi North 8.1 mph - N/A   Mostly Cloudy
12:55 AM 34.7 °F 28.1 °F 31.1 °F 87% 29.65 in 10.0 mi North 8.1 mph - N/A   Scattered Clouds
1:15 AM 34.3 °F 27.0 °F 31.1 °F 88% 29.63 in 10.0 mi North 9.2 mph - N/A   Mostly Cloudy
1:35 AM 34.0 °F 28.0 °F 31.1 °F 89% 29.64 in 10.0 mi NNW 6.9 mph - N/A   Scattered Clouds
1:55 AM 34.2 °F 26.8 °F 31.1 °F 89% 29.64 in 10.0 mi NNW 9.2 mph - N/A   Mostly Cloudy
2:15 AM 34.7 °F 28.1 °F 31.3 °F 87% 29.63 in 10.0 mi North 8.1 mph - N/A Thunderstorm Mostly Cloudy
2:35 AM 34.9 °F 27.1 °F 31.3 °F 87% 29.62 in 10.0 mi North 10.4 mph - N/A   Overcast
2:55 AM 34.3 °F 26.5 °F 30.9 °F 87% 29.62 in 10.0 mi North 10.4 mph - N/A   Mostly Cloudy
3:15 AM 34.2 °F 26.8 °F 30.7 °F 87% 29.62 in 10.0 mi North 9.2 mph - N/A   Scattered Clouds
3:35 AM 34.7 °F 25.5 °F 31.1 °F 87% 29.61 in 10.0 mi North 13.8 mph - N/A   Mostly Cloudy
3:55 AM 34.7 °F 27.5 °F 30.9 °F 86% 29.62 in 10.0 mi NNW 9.2 mph - N/A   Overcast
4:15 AM 34.9 °F 26.6 °F 30.7 °F 85% 29.62 in 10.0 mi NNW 11.5 mph - N/A   Overcast
4:35 AM 35.4 °F 27.8 °F 30.7 °F 83% 29.63 in 10.0 mi NNW 10.4 mph - N/A   Overcast
4:55 AM 34.7 °F 25.9 °F 31.5 °F 88% 29.63 in 5.0 mi NNW 12.7 mph - N/A   Overcast
5:15 AM 34.0 °F 26.0 °F 31.6 °F 91% 29.64 in 5.0 mi NW 10.4 mph - N/A   Overcast
5:35 AM 33.1 °F 23.9 °F 31.8 °F 95% 29.64 in 1.8 mi NNW 12.7 mph 17.3 mph N/A   Overcast
5:55 AM 32.7 °F 22.5 °F 31.8 °F 96% 29.65 in 2.5 mi North 15.0 mph - N/A   Overcast
6:15 AM 32.4 °F 22.1 °F 32.0 °F 99% 29.64 in 1.2 mi NNW 15.0 mph - N/A   Overcast
6:35 AM 32.4 °F 21.3 °F 32.0 °F 99% 29.65 in 1.2 mi NNW 17.3 mph 23.0 mph N/A   Overcast
6:55 AM 32.2 °F 20.7 °F 32.0 °F 99% 29.65 in 0.2 mi NNW 18.4 mph - N/A   Overcast
7:15 AM 32.4 °F 20.6 °F 32.0 °F 99% 29.65 in 0.2 mi NNW 19.6 mph 24.2 mph N/A   Overcast
7:35 AM 32.7 °F 21.4 °F 32.0 °F 97% 29.65 in 0.2 mi NNW 18.4 mph - N/A   Overcast
7:55 AM 32.5 °F 19.9 °F 31.8 °F 97% 29.66 in 0.5 mi NNW 23.0 mph - N/A   Overcast
8:15 AM 32.2 °F 18.9 °F 31.5 °F 97% 29.68 in 0.8 mi North 25.3 mph - N/A   Overcast
8:35 AM 32.0 °F 20.5 °F 30.7 °F 95% 29.69 in 0.8 mi North 18.4 mph - N/A   Overcast
8:55 AM 31.8 °F 19.0 °F 30.2 °F 94% 29.69 in 0.5 mi North 23.0 mph 27.6 mph N/A   Overcast
9:15 AM 32.0 °F 19.8 °F 30.2 °F 93% 29.69 in 0.5 mi North 20.7 mph - N/A   Overcast
9:35 AM 32.2 °F 19.7 °F 30.9 °F 95% 29.69 in 0.5 mi North 21.9 mph - N/A   Overcast
9:55 AM 32.4 °F 18.6 °F 30.7 °F 94% 29.70 in 0.5 mi North 27.6 mph 32.2 mph N/A   Overcast
10:15 AM 32.4 °F 19.7 °F 30.7 °F 94% 29.70 in 0.5 mi North 23.0 mph 28.8 mph N/A   Overcast
10:35 AM 32.4 °F 19.4 °F 30.9 °F 94% 29.71 in 0.2 mi North 24.2 mph 28.8 mph N/A   Overcast
10:55 AM 32.5 °F 20.8 °F 30.7 °F 93% 29.72 in 0.5 mi North 19.6 mph 25.3 mph N/A   Overcast
11:15 AM 32.4 °F 18.9 °F 30.2 °F 92% 29.72 in 0.8 mi North 26.5 mph 32.2 mph N/A   Overcast
11:35 AM 32.5 °F 19.6 °F 30.2 °F 91% 29.73 in 0.5 mi North 24.2 mph 29.9 mph N/A   Overcast
11:55 AM 32.0 °F 18.1 °F 29.7 °F 91% 29.74 in 0.8 mi North 27.6 mph - N/A   Overcast
12:15 PM 32.0 °F 19.2 °F 29.8 °F 92% 29.74 in 0.5 mi North 23.0 mph 34.5 mph N/A   Overcast
12:35 PM 32.0 °F 18.6 °F 29.7 °F 91% 29.75 in 0.5 mi North 25.3 mph - N/A   Overcast
12:55 PM 32.0 °F 19.5 °F 29.3 °F 90% 29.76 in 0.5 mi North 21.9 mph 33.4 mph N/A   Overcast
1:15 PM 32.2 °F 19.1 °F 29.1 °F 88% 29.76 in 0.8 mi North 24.2 mph - N/A   Overcast
1:35 PM 32.5 °F 21.2 °F 29.5 °F 88% 29.76 in 1.0 mi North 18.4 mph 26.5 mph N/A   Overcast
1:55 PM 32.9 °F 20.7 °F 29.7 °F 88% 29.77 in 1.0 mi North 21.9 mph 27.6 mph N/A   Overcast
2:15 PM 33.3 °F 22.1 °F 30.2 °F 89% 29.77 in 1.2 mi NNW 18.4 mph - N/A   Overcast
2:35 PM 34.0 °F 21.5 °F 28.4 °F 80% 29.78 in 5.0 mi North 24.2 mph 29.9 mph N/A   Overcast
2:55 PM 33.8 °F 23.2 °F 28.2 °F 80% 29.78 in 10.0 mi North 17.3 mph - N/A   Overcast
3:15 PM 33.8 °F 25.8 °F 28.4 °F 81% 29.80 in 10.0 mi NNW 10.4 mph - N/A   Overcast
3:35 PM 34.9 °F 24.2 °F 27.9 °F 76% 29.81 in 10.0 mi North 18.4 mph - N/A   Overcast
3:55 PM 34.7 °F 24.0 °F 27.5 °F 75% 29.81 in 10.0 mi NNW 18.4 mph - N/A   Overcast
4:15 PM 34.7 °F 22.5 °F 26.6 °F 72% 29.82 in 10.0 mi NNW 24.2 mph 29.9 mph N/A   Overcast
4:35 PM 34.2 °F 21.3 °F 26.2 °F 73% 29.83 in 7.0 mi North 26.5 mph 32.2 mph N/A   Overcast
4:55 PM 33.8 °F 21.3 °F 25.5 °F 72% 29.84 in 7.0 mi NNW 24.2 mph 33.4 mph N/A   Overcast
5:15 PM 33.3 °F 20.6 °F 25.7 °F 74% 29.85 in 7.0 mi North 24.2 mph - N/A   Overcast
5:35 PM 33.1 °F 20.1 °F 25.3 °F 73% 29.86 in 10.0 mi North 25.3 mph 28.8 mph N/A   Overcast
5:55 PM 32.9 °F 20.4 °F 25.5 °F 74% 29.87 in 10.0 mi North 23.0 mph - N/A   Overcast
6:15 PM 32.2 °F 18.6 °F 25.0 °F 75% 29.89 in 10.0 mi NNW 26.5 mph - N/A   Mostly Cloudy
6:35 PM 31.8 °F 18.1 °F 23.9 °F 73% 29.90 in 10.0 mi NNW 26.5 mph 29.9 mph N/A   Scattered Clouds
6:55 PM 30.6 °F 16.2 °F 23.0 °F 74% 29.91 in 5.0 mi NNW 27.6 mph - N/A   Clear
7:15 PM 29.7 °F 15.0 °F 21.9 °F 73% 29.93 in 7.0 mi NNW 27.6 mph - N/A   Clear
7:35 PM 29.3 °F 14.7 °F 21.6 °F 73% 29.94 in 7.0 mi NNW 26.5 mph - N/A   Clear
7:55 PM 28.9 °F 14.3 °F 21.7 °F 74% 29.96 in 5.0 mi NNW 26.5 mph 33.4 mph N/A   Clear
8:15 PM 28.2 °F 12.5 °F 21.2 °F 75% 29.98 in 4.0 mi NNW 29.9 mph 36.8 mph N/A   Clear
8:35 PM 27.9 °F 12.8 °F 20.8 °F 75% 29.99 in 5.0 mi NNW 26.5 mph 32.2 mph N/A   Clear
8:55 PM 27.5 °F 12.6 °F 20.1 °F 74% 30.01 in 7.0 mi NNW 25.3 mph - N/A   Clear
9:15 PM 27.3 °F 13.6 °F 19.2 °F 72% 30.03 in 10.0 mi NNW 20.7 mph - N/A   Scattered Clouds
9:35 PM 26.2 °F 13.8 °F 18.0 °F 71% 30.03 in 10.0 mi NNW 16.1 mph - N/A   Scattered Clouds
9:55 PM 24.6 °F 12.7 °F 16.5 °F 71% 30.03 in 10.0 mi NNW 13.8 mph - N/A   Clear
10:15 PM 23.0 °F 10.6 °F 15.6 °F 73% 30.05 in 10.0 mi NNW 13.8 mph - N/A   Clear
10:35 PM 21.6 °F 8.8 °F 14.9 °F 76% 30.05 in 10.0 mi NW 13.8 mph - N/A   Clear
10:55 PM 22.1 °F 8.9 °F 14.9 °F 74% 30.05 in 10.0 mi NW 15.0 mph - N/A   Clear
11:15 PM 21.7 °F 9.0 °F 14.2 °F 73% 30.04 in 10.0 mi NW 13.8 mph - N/A   Clear
11:35 PM 20.5 °F 8.6 °F 13.3 °F 74% 30.05 in 10.0 mi NW 11.5 mph - N/A   Clear
11:55 PM 18.7 °F 5.1 °F 12.4 °F 76% 30.05 in 10.0 mi NW 13.8 mph - N/A   Scattered Clouds